Terminal Aerodrome Forecast
Issued by NWS

Home | Current Version | Previous Version | Text Only | Print | Product List | Glossary On
Versions: 1 2 3 4 5 6 7 8 9 10 11 12 13 14 15 16 17 18 19 20 21 22 23 24 25 26 27
786
FTUS45 KGJT 241123
TAFCNY
TAF
KCNY 241123Z 2412/2512 07003KT P6SM SKC
     FM241400 18009KT P6SM SCT250
     FM241700 19013G20KT P6SM SCT250
     FM242300 22015G22KT P6SM FEW100 SCT250
     FM250300 22009KT P6SM SCT250
     FM250800 19006KT P6SM FEW250=

USA.gov is the U.S. government's official web portal to all federal, state and local government web resources and services.